createdAt,value
2022-10-04T00:02:31.236Z,99.90
2022-10-04T00:05:04.086Z,99.90
2022-10-04T00:07:35.222Z,99.90
2022-10-04T00:10:07.356Z,99.90
2022-10-04T00:12:39.252Z,99.90
2022-10-04T00:15:20.055Z,99.90
2022-10-04T00:18:02.497Z,99.90
2022-10-04T00:21:02.307Z,99.90
2022-10-04T00:23:42.529Z,99.90
2022-10-04T00:26:33.276Z,99.90
2022-10-04T00:29:34.494Z,99.90
2022-10-04T00:32:46.745Z,99.90
2022-10-04T00:35:50.670Z,99.90
2022-10-04T00:38:26.968Z,99.90
2022-10-04T00:41:01.889Z,99.90
2022-10-04T00:43:34.672Z,99.90
2022-10-04T00:46:06.882Z,99.90
2022-10-04T00:48:44.684Z,99.90
2022-10-04T00:51:24.090Z,99.90
2022-10-04T00:53:59.641Z,99.90
2022-10-04T00:56:34.312Z,99.90
2022-10-04T00:59:19.136Z,99.90
2022-10-04T01:01:50.967Z,99.90
2022-10-04T01:04:29.698Z,99.90
2022-10-04T01:07:02.867Z,99.90
2022-10-04T01:09:34.686Z,99.90
2022-10-04T01:12:07.950Z,99.90
2022-10-04T01:14:47.799Z,99.90
2022-10-04T01:17:15.834Z,99.90
2022-10-04T01:19:52.996Z,99.90
2022-10-04T01:22:38.990Z,99.90
2022-10-04T01:25:07.102Z,99.90
2022-10-04T01:27:37.850Z,99.90
2022-10-04T01:30:09.402Z,99.90
2022-10-04T01:32:39.199Z,99.90
2022-10-04T01:35:09.243Z,99.90
2022-10-04T01:37:39.896Z,99.90
2022-10-04T01:40:09.891Z,99.90
2022-10-04T01:42:44.596Z,99.90
2022-10-04T01:45:18.500Z,99.90
2022-10-04T01:47:51.811Z,99.90
2022-10-04T01:50:25.194Z,99.90
2022-10-04T01:52:58.542Z,99.90
2022-10-04T01:55:30.198Z,99.90
2022-10-04T01:58:01.975Z,99.90
2022-10-04T02:00:30.092Z,99.90
2022-10-04T02:03:01.679Z,99.90
2022-10-04T02:05:32.599Z,99.90
2022-10-04T02:08:07.324Z,99.90
2022-10-04T02:10:43.602Z,99.90
2022-10-04T02:13:15.134Z,99.90
2022-10-04T02:15:44.732Z,99.90
2022-10-04T02:18:14.945Z,99.90
2022-10-04T02:20:43.856Z,99.90
2022-10-04T02:23:14.009Z,99.90
2022-10-04T02:25:41.827Z,99.90
2022-10-04T02:28:13.253Z,99.90
2022-10-04T02:31:05.028Z,99.90
2022-10-04T02:33:32.466Z,99.90
2022-10-04T02:36:01.078Z,99.90
2022-10-04T02:38:36.621Z,99.90
2022-10-04T02:41:12.418Z,99.90
2022-10-04T02:43:44.202Z,99.90
2022-10-04T02:46:16.829Z,99.90
2022-10-04T02:48:48.802Z,99.90
2022-10-04T02:51:21.042Z,99.90
2022-10-04T02:54:03.425Z,99.90
2022-10-04T02:56:32.813Z,99.90
2022-10-04T02:59:03.545Z,99.90
2022-10-04T03:01:44.928Z,99.90
2022-10-04T03:04:15.798Z,99.90
2022-10-04T03:06:46.002Z,99.90
2022-10-04T03:09:16.093Z,99.90
2022-10-04T03:11:44.730Z,99.90
2022-10-04T03:14:16.137Z,99.90
2022-10-04T03:16:46.452Z,99.90
2022-10-04T03:19:17.629Z,99.90
2022-10-04T03:21:48.406Z,99.90
2022-10-04T03:24:23.178Z,99.90
2022-10-04T03:26:55.377Z,99.90
2022-10-04T03:29:24.672Z,99.90
2022-10-04T03:31:57.380Z,99.90
2022-10-04T03:34:27.367Z,99.90
2022-10-04T03:36:58.753Z,99.90
2022-10-04T03:39:33.761Z,99.90
2022-10-04T03:42:06.424Z,99.90
2022-10-04T03:44:35.348Z,99.90
2022-10-04T03:47:08.386Z,99.90
2022-10-04T03:49:38.532Z,99.90
2022-10-04T03:52:08.895Z,99.90
2022-10-04T03:54:38.337Z,99.90
2022-10-04T03:57:08.054Z,99.90
2022-10-04T03:59:37.465Z,99.90
2022-10-04T04:02:13.956Z,99.90
2022-10-04T04:04:49.485Z,99.90
2022-10-04T04:07:21.944Z,99.90
2022-10-04T04:09:54.663Z,99.90
2022-10-04T04:12:28.216Z,99.90
2022-10-04T04:14:56.074Z,99.90
2022-10-04T04:17:40.860Z,99.90
2022-10-04T04:20:19.701Z,99.90
2022-10-04T04:22:58.226Z,99.90
2022-10-04T04:25:29.503Z,99.90
2022-10-04T04:28:03.727Z,99.90
2022-10-04T04:30:35.018Z,99.90
2022-10-04T04:33:11.151Z,99.90
2022-10-04T04:35:38.997Z,99.90
2022-10-04T04:38:15.815Z,99.90
2022-10-04T04:40:45.531Z,99.90
2022-10-04T04:43:17.899Z,99.90
2022-10-04T04:46:02.875Z,99.90
2022-10-04T04:48:38.128Z,99.90
2022-10-04T04:51:06.511Z,99.90
2022-10-04T04:53:34.420Z,99.90
2022-10-04T04:56:10.400Z,99.90
2022-10-04T04:58:44.143Z,99.90
2022-10-04T05:01:22.509Z,99.90
2022-10-04T05:04:02.124Z,99.90
2022-10-04T05:06:32.612Z,99.90
2022-10-04T05:09:00.736Z,99.90
2022-10-04T05:11:35.778Z,99.90
2022-10-04T05:14:07.764Z,99.90
2022-10-04T05:16:41.318Z,99.90
2022-10-04T05:19:16.178Z,99.90
2022-10-04T05:21:46.450Z,99.90
2022-10-04T05:24:19.650Z,99.90
2022-10-04T05:26:51.426Z,99.90
2022-10-04T05:29:22.310Z,99.90
2022-10-04T05:31:56.307Z,99.90
2022-10-04T05:34:27.052Z,99.90
2022-10-04T05:37:07.366Z,99.90
2022-10-04T05:39:42.344Z,99.90
2022-10-04T05:42:18.883Z,99.90
2022-10-04T05:44:51.783Z,99.90
2022-10-04T05:47:23.941Z,99.90
2022-10-04T05:49:54.016Z,99.90
2022-10-04T05:52:31.321Z,99.90
2022-10-04T05:55:31.199Z,99.90
2022-10-04T05:58:26.202Z,99.90
2022-10-04T06:01:11.388Z,99.90
2022-10-04T06:04:00.712Z,99.90
2022-10-04T06:06:39.373Z,99.90
2022-10-04T06:09:17.617Z,99.90
2022-10-04T06:11:55.676Z,99.90
2022-10-04T06:14:45.965Z,99.90
2022-10-04T06:17:39.219Z,99.90
2022-10-04T06:20:31.782Z,99.90
2022-10-04T06:23:03.468Z,99.90
2022-10-04T06:25:39.260Z,99.90
2022-10-04T06:28:16.812Z,99.90
2022-10-04T06:31:11.087Z,99.90
2022-10-04T06:33:55.092Z,99.90
2022-10-04T06:36:59.986Z,99.90
2022-10-04T06:39:42.160Z,99.90
2022-10-04T06:42:39.279Z,99.90
2022-10-04T06:45:38.910Z,99.90
2022-10-04T06:48:30.034Z,99.90
2022-10-04T06:51:06.168Z,99.90
2022-10-04T06:53:48.278Z,99.90
2022-10-04T06:56:29.260Z,99.90
2022-10-04T06:59:24.454Z,99.90
2022-10-04T07:01:58.850Z,99.90
2022-10-04T07:05:03.077Z,99.90
2022-10-04T07:07:36.264Z,99.90
2022-10-04T07:10:19.176Z,99.90
2022-10-04T07:12:55.849Z,99.90
2022-10-04T07:15:27.633Z,99.90
2022-10-04T07:17:59.692Z,99.90
2022-10-04T07:20:32.213Z,99.90
2022-10-04T07:23:05.236Z,99.90
2022-10-04T07:25:37.275Z,99.90
2022-10-04T07:28:30.760Z,99.90
2022-10-04T07:31:03.955Z,99.90
2022-10-04T07:33:35.968Z,99.90
2022-10-04T07:36:09.610Z,99.90
2022-10-04T07:38:43.685Z,99.90
2022-10-04T07:41:19.309Z,99.90
2022-10-04T07:43:52.417Z,99.90
2022-10-04T07:46:40.130Z,99.90
2022-10-04T07:49:14.879Z,99.90
2022-10-04T07:52:03.294Z,99.90
2022-10-04T07:54:39.894Z,99.90
2022-10-04T07:57:18.701Z,99.90
2022-10-04T07:59:58.912Z,99.90
2022-10-04T08:02:38.545Z,99.90
2022-10-04T08:05:19.132Z,99.90
2022-10-04T08:08:05.926Z,99.90
2022-10-04T08:10:42.917Z,99.90
2022-10-04T08:13:23.184Z,99.90
2022-10-04T08:15:52.831Z,99.90
2022-10-04T08:18:39.205Z,99.90
2022-10-04T08:21:09.422Z,99.90
2022-10-04T08:23:53.259Z,99.90
2022-10-04T08:26:40.669Z,99.90
2022-10-04T08:29:42.796Z,99.90
2022-10-04T08:32:28.165Z,99.90
2022-10-04T08:35:27.972Z,99.90
2022-10-04T08:38:09.668Z,99.90
2022-10-04T08:41:24.214Z,99.90
2022-10-04T08:44:24.396Z,99.90
2022-10-04T08:47:22.294Z,99.90
2022-10-04T08:50:27.419Z,99.90
2022-10-04T08:53:26.335Z,99.90
2022-10-04T08:56:07.574Z,99.90
2022-10-04T08:59:08.003Z,99.90
2022-10-04T09:02:17.797Z,99.90
2022-10-04T09:05:09.912Z,99.90
2022-10-04T09:08:21.155Z,99.90
2022-10-04T09:11:10.407Z,99.90
2022-10-04T09:13:44.819Z,99.90
2022-10-04T09:16:17.596Z,99.90
2022-10-04T09:19:17.700Z,99.90
2022-10-04T09:22:17.325Z,99.90
2022-10-04T09:25:22.659Z,99.90
2022-10-04T09:28:25.421Z,99.90
2022-10-04T09:31:11.048Z,99.90
2022-10-04T09:33:56.117Z,99.90
2022-10-04T09:36:43.734Z,99.90
2022-10-04T09:39:36.618Z,99.90
2022-10-04T09:42:24.753Z,99.90
2022-10-04T09:45:21.554Z,99.90
2022-10-04T09:48:01.420Z,99.90
2022-10-04T09:50:43.866Z,99.90
2022-10-04T09:53:47.110Z,99.90
2022-10-04T09:56:36.806Z,99.90
2022-10-04T09:59:37.511Z,99.40
2022-10-04T10:02:46.635Z,99.10
2022-10-04T10:05:27.883Z,98.70
2022-10-04T10:08:09.517Z,98.00
2022-10-04T10:11:05.171Z,98.30
2022-10-04T10:13:58.237Z,98.40
2022-10-04T10:16:49.760Z,96.60
2022-10-04T10:20:00.145Z,96.60
2022-10-04T10:22:54.066Z,95.70
2022-10-04T10:25:39.468Z,96.30
2022-10-04T10:28:43.243Z,96.20
2022-10-04T10:31:36.248Z,94.50
2022-10-04T10:34:25.266Z,94.80
2022-10-04T10:37:10.823Z,95.30
2022-10-04T10:40:12.385Z,95.40
2022-10-04T10:42:51.992Z,94.30
2022-10-04T10:45:29.253Z,94.20
2022-10-04T10:48:06.127Z,95.00
2022-10-04T10:51:10.986Z,94.10
2022-10-04T10:54:21.743Z,93.70
2022-10-04T10:57:06.804Z,92.60
2022-10-04T11:00:14.015Z,93.40
2022-10-04T11:03:14.302Z,93.40
2022-10-04T11:06:12.068Z,93.30
2022-10-04T11:09:23.555Z,92.70
2022-10-04T11:12:35.827Z,92.00
2022-10-04T11:15:34.015Z,92.90
2022-10-04T11:18:30.481Z,91.70
2022-10-04T11:21:42.874Z,91.10
2022-10-04T11:24:35.483Z,91.60
2022-10-04T11:27:28.369Z,91.60
2022-10-04T11:30:05.806Z,91.90
2022-10-04T11:33:17.203Z,92.20
2022-10-04T11:36:13.401Z,92.50
2022-10-04T11:39:04.150Z,92.40
2022-10-04T11:41:50.257Z,91.40
2022-10-04T11:44:44.587Z,91.90
2022-10-04T11:47:34.474Z,92.40
2022-10-04T11:50:15.851Z,92.00
2022-10-04T11:53:03.283Z,91.40
2022-10-04T11:55:54.453Z,90.80
2022-10-04T11:58:32.706Z,91.00
2022-10-04T12:01:30.223Z,90.50
2022-10-04T12:04:28.143Z,88.80
2022-10-04T12:07:08.467Z,88.90
2022-10-04T12:09:45.051Z,88.60
2022-10-04T12:12:43.837Z,89.80
2022-10-04T12:15:49.232Z,88.20
2022-10-04T12:18:36.779Z,89.20
2022-10-04T12:21:31.418Z,89.50
2022-10-04T12:24:09.636Z,89.80
2022-10-04T12:26:56.143Z,89.90
2022-10-04T12:29:46.218Z,90.60
2022-10-04T12:32:17.410Z,90.30
2022-10-04T12:34:55.971Z,90.90
2022-10-04T12:37:34.384Z,90.40
2022-10-04T12:40:20.789Z,90.40
2022-10-04T12:42:55.754Z,90.40
2022-10-04T12:45:35.808Z,89.80
2022-10-04T12:48:19.468Z,90.00
2022-10-04T12:50:54.393Z,90.50
2022-10-04T12:53:35.405Z,90.80
2022-10-04T12:56:20.724Z,89.80
2022-10-04T12:59:07.304Z,90.10
2022-10-04T13:01:42.687Z,88.10
2022-10-04T13:04:30.472Z,89.70
2022-10-04T13:07:32.757Z,90.00
2022-10-04T13:10:24.680Z,89.40
2022-10-04T13:13:42.220Z,87.90
2022-10-04T13:19:17.599Z,88.70
2022-10-04T13:22:05.559Z,89.40
2022-10-04T13:24:54.489Z,87.40
2022-10-04T13:27:32.070Z,86.70
2022-10-04T13:30:06.932Z,85.00
2022-10-04T13:32:44.084Z,85.80
2022-10-04T13:35:20.867Z,85.60
2022-10-04T13:38:04.950Z,84.60
2022-10-04T13:40:50.438Z,83.00
2022-10-04T13:43:54.245Z,80.60
2022-10-04T13:46:32.319Z,79.60
2022-10-04T13:49:18.192Z,82.20
2022-10-04T13:52:27.370Z,80.20
2022-10-04T13:55:29.038Z,80.00
2022-10-04T13:58:08.919Z,79.70
2022-10-04T14:00:52.570Z,79.90
2022-10-04T14:03:46.914Z,80.30
2022-10-04T14:06:43.342Z,81.20
2022-10-04T14:09:26.254Z,82.80
2022-10-04T14:12:12.655Z,82.80
2022-10-04T14:15:34.396Z,83.30
2022-10-04T14:18:41.375Z,81.60
2022-10-04T14:21:35.855Z,81.60
2022-10-04T14:24:33.115Z,82.40
2022-10-04T14:27:32.761Z,81.70
2022-10-04T14:30:12.417Z,82.40
2022-10-04T14:33:26.036Z,84.10
2022-10-04T14:36:15.324Z,82.90
2022-10-04T14:38:58.458Z,83.80
2022-10-04T14:42:03.845Z,82.60
2022-10-04T14:45:11.397Z,83.50
2022-10-04T14:48:09.589Z,83.40
2022-10-04T14:50:51.225Z,82.20
2022-10-04T14:53:30.225Z,83.50
2022-10-04T14:56:29.727Z,83.90
2022-10-04T14:59:11.745Z,84.80
2022-10-04T15:01:46.519Z,84.20
2022-10-04T15:04:34.006Z,84.20
2022-10-04T15:07:04.503Z,84.90
2022-10-04T15:09:51.163Z,84.50
2022-10-04T15:13:09.240Z,84.30
2022-10-04T15:15:50.532Z,85.40
2022-10-04T15:18:33.493Z,85.70
2022-10-04T15:21:06.789Z,84.50
2022-10-04T15:23:39.873Z,85.90
2022-10-04T15:26:50.277Z,85.10
2022-10-04T15:29:26.319Z,86.40
2022-10-04T15:32:05.071Z,86.60
2022-10-04T15:34:42.208Z,87.40
2022-10-04T15:37:19.927Z,86.30
2022-10-04T15:40:29.871Z,87.70
2022-10-04T15:43:16.276Z,87.00
2022-10-04T15:46:08.949Z,87.40
2022-10-04T15:48:53.599Z,86.60
2022-10-04T15:51:44.806Z,86.30
2022-10-04T15:54:33.784Z,85.90
2022-10-04T15:57:13.204Z,86.40
2022-10-04T15:59:49.361Z,86.70
2022-10-04T16:02:49.703Z,86.60
2022-10-04T16:05:25.229Z,86.80
2022-10-04T16:08:06.735Z,88.20
2022-10-04T16:11:00.574Z,89.00
2022-10-04T16:13:47.879Z,89.80
2022-10-04T16:16:46.845Z,90.00
2022-10-04T16:19:25.956Z,89.80
2022-10-04T16:21:55.873Z,89.60
2022-10-04T16:24:42.028Z,90.00
2022-10-04T16:27:50.450Z,90.10
2022-10-04T16:30:28.533Z,90.00
2022-10-04T16:33:22.495Z,90.30
2022-10-04T16:36:02.820Z,90.40
2022-10-04T16:38:36.109Z,90.80
2022-10-04T16:41:13.404Z,91.50
2022-10-04T16:43:53.006Z,91.20
2022-10-04T16:46:30.629Z,91.70
2022-10-04T16:49:04.929Z,90.90
2022-10-04T16:52:03.300Z,90.70
2022-10-04T16:54:46.244Z,91.50
2022-10-04T16:57:22.324Z,92.00
2022-10-04T16:59:56.023Z,92.90
2022-10-04T17:02:46.056Z,92.90
2022-10-04T17:05:33.338Z,93.20
2022-10-04T17:08:32.875Z,93.50
2022-10-04T17:11:18.705Z,93.70
2022-10-04T17:13:57.007Z,93.20
2022-10-04T17:16:32.119Z,93.50
2022-10-04T17:19:29.085Z,93.50
2022-10-04T17:22:11.209Z,94.00
2022-10-04T17:24:56.613Z,94.40
2022-10-04T17:27:44.802Z,94.90
2022-10-04T17:30:19.129Z,95.50
2022-10-04T17:33:07.563Z,95.70
2022-10-04T17:35:59.632Z,96.00
2022-10-04T17:38:37.178Z,96.50
2022-10-04T17:41:15.914Z,96.90
2022-10-04T17:44:27.983Z,97.20
2022-10-04T17:47:03.170Z,97.40
2022-10-04T17:49:57.653Z,97.60
2022-10-04T17:52:50.513Z,97.90
2022-10-04T17:55:28.568Z,97.70
2022-10-04T17:58:02.893Z,97.70
2022-10-04T18:00:51.212Z,98.10
2022-10-04T18:03:22.049Z,98.10
2022-10-04T18:05:54.127Z,98.00
2022-10-04T18:08:42.654Z,98.10
2022-10-04T18:11:21.858Z,98.00
2022-10-04T18:13:55.488Z,98.00
2022-10-04T18:16:27.597Z,98.70
2022-10-04T18:18:55.907Z,98.70
2022-10-04T18:21:27.424Z,98.70
2022-10-04T18:23:57.985Z,98.80
2022-10-04T18:26:29.737Z,98.70
2022-10-04T18:29:03.756Z,98.70
2022-10-04T18:31:36.811Z,98.90
2022-10-04T18:34:19.143Z,98.80
2022-10-04T18:36:53.464Z,98.90
2022-10-04T18:39:22.903Z,98.40
2022-10-04T18:42:16.530Z,98.10
2022-10-04T18:44:47.330Z,98.20
2022-10-04T18:47:21.390Z,98.50
2022-10-04T18:49:52.239Z,98.50
2022-10-04T18:52:32.774Z,98.90
2022-10-04T18:55:16.808Z,98.90
2022-10-04T18:58:10.976Z,98.80
2022-10-04T19:01:01.287Z,99.10
2022-10-04T19:03:41.716Z,98.90
2022-10-04T19:06:15.984Z,99.10
2022-10-04T19:08:53.217Z,99.10
2022-10-04T19:11:25.844Z,99.00
2022-10-04T19:14:07.460Z,98.70
2022-10-04T19:16:43.527Z,98.70
2022-10-04T19:19:40.417Z,99.00
2022-10-04T19:22:21.577Z,99.30
2022-10-04T19:25:23.028Z,99.70
2022-10-04T19:27:53.300Z,99.50
2022-10-04T19:30:28.087Z,99.00
2022-10-04T19:33:08.768Z,99.40
2022-10-04T19:35:58.741Z,99.20
2022-10-04T19:38:43.337Z,99.30
2022-10-04T19:41:18.905Z,99.00
2022-10-04T19:43:53.489Z,99.10
2022-10-04T19:46:36.115Z,98.90
2022-10-04T19:49:09.711Z,99.00
2022-10-04T19:51:42.146Z,98.80
2022-10-04T19:54:15.938Z,98.90
2022-10-04T19:56:48.341Z,99.00
2022-10-04T19:59:18.866Z,98.80
2022-10-04T20:01:53.041Z,98.80
2022-10-04T20:04:36.062Z,98.70
2022-10-04T20:07:06.263Z,98.70
2022-10-04T20:09:52.283Z,98.70
2022-10-04T20:12:32.942Z,98.70
2022-10-04T20:15:27.432Z,98.60
2022-10-04T20:17:58.036Z,99.00
2022-10-04T20:20:59.904Z,99.10
2022-10-04T20:23:49.259Z,99.50
2022-10-04T20:26:53.322Z,99.60
2022-10-04T20:30:07.519Z,99.50
2022-10-04T20:33:01.832Z,99.40
2022-10-04T20:36:06.340Z,99.40
2022-10-04T20:39:00.414Z,98.90
2022-10-04T20:42:03.002Z,99.20
2022-10-04T20:44:45.075Z,99.40
2022-10-04T20:47:24.644Z,99.50
2022-10-04T20:49:56.783Z,99.50
2022-10-04T20:52:27.949Z,99.50
2022-10-04T20:54:57.114Z,99.40
2022-10-04T20:57:24.992Z,99.10
2022-10-04T20:59:55.391Z,99.30
2022-10-04T21:02:27.195Z,99.50
2022-10-04T21:05:12.142Z,99.30
2022-10-04T21:07:39.912Z,99.10
2022-10-04T21:10:16.014Z,99.00
2022-10-04T21:12:44.058Z,99.10
2022-10-04T21:15:23.557Z,99.50
2022-10-04T21:18:02.850Z,99.20
2022-10-04T21:20:46.320Z,99.50
2022-10-04T21:23:19.348Z,99.40
2022-10-04T21:25:47.175Z,99.30
2022-10-04T21:28:25.112Z,99.00
2022-10-04T21:30:52.953Z,98.70
2022-10-04T21:33:20.741Z,99.10
2022-10-04T21:35:52.506Z,98.60
2022-10-04T21:38:20.743Z,98.50
2022-10-04T21:40:48.516Z,98.40
2022-10-04T21:43:16.347Z,98.40
2022-10-04T21:45:44.223Z,98.40
2022-10-04T21:48:12.036Z,98.20
2022-10-04T21:50:39.837Z,98.30
2022-10-04T21:53:09.069Z,98.60
2022-10-04T21:55:36.826Z,98.30
2022-10-04T21:58:04.638Z,98.20
2022-10-04T22:00:32.555Z,98.20
2022-10-04T22:03:00.384Z,98.40
2022-10-04T22:05:28.554Z,98.20
2022-10-04T22:07:58.127Z,98.30
2022-10-04T22:10:29.065Z,98.60
2022-10-04T22:12:57.196Z,98.60
2022-10-04T22:15:26.640Z,98.70
2022-10-04T22:17:54.599Z,98.80
2022-10-04T22:20:22.590Z,98.60
2022-10-04T22:22:50.467Z,98.50
2022-10-04T22:25:20.082Z,98.40
2022-10-04T22:27:49.651Z,98.50
2022-10-04T22:30:23.953Z,98.80
2022-10-04T22:32:51.918Z,98.60
2022-10-04T22:35:21.046Z,98.70
2022-10-04T22:37:50.059Z,98.60
2022-10-04T22:40:20.837Z,98.60
2022-10-04T22:42:53.337Z,99.00
2022-10-04T22:45:24.454Z,99.40
2022-10-04T22:47:53.205Z,99.40
2022-10-04T22:50:30.090Z,99.20
2022-10-04T22:52:58.664Z,99.20
2022-10-04T22:55:26.745Z,99.10
2022-10-04T22:57:56.209Z,99.20
2022-10-04T23:00:24.023Z,98.90
2022-10-04T23:02:51.861Z,98.80
2022-10-04T23:05:20.896Z,99.00
2022-10-04T23:07:49.573Z,99.10
2022-10-04T23:10:19.847Z,99.00
2022-10-04T23:12:48.959Z,99.20
2022-10-04T23:15:19.817Z,98.70
2022-10-04T23:17:53.462Z,98.80
2022-10-04T23:20:21.650Z,99.20
2022-10-04T23:22:51.131Z,99.30
2022-10-04T23:25:22.154Z,99.50
2022-10-04T23:27:50.029Z,99.50
2022-10-04T23:30:22.059Z,99.80
2022-10-04T23:32:54.161Z,99.60
2022-10-04T23:35:24.650Z,99.40
2022-10-04T23:37:54.287Z,99.40
2022-10-04T23:40:24.080Z,99.40
2022-10-04T23:42:54.852Z,99.40
2022-10-04T23:45:26.138Z,99.50
2022-10-04T23:47:57.004Z,99.70
2022-10-04T23:50:27.480Z,99.90
2022-10-04T23:52:58.177Z,99.90
2022-10-04T23:55:30.701Z,99.90
2022-10-04T23:58:00.981Z,99.90
